createdAt,value
2019-02-17T00:00:26.997Z,44.90
2019-02-17T00:02:53.003Z,45.07
2019-02-17T00:05:18.872Z,43.97
2019-02-17T00:07:44.801Z,43.53
2019-02-17T00:10:10.780Z,44.23
2019-02-17T00:12:39.758Z,44.60
2019-02-17T00:15:07.496Z,44.57
2019-02-17T00:17:33.395Z,44.60
2019-02-17T00:20:04.818Z,44.13
2019-02-17T00:22:30.758Z,44.90
2019-02-17T00:24:56.639Z,42.93
2019-02-17T00:27:22.501Z,45.37
2019-02-17T00:29:48.435Z,46.40
2019-02-17T00:32:14.326Z,45.03
2019-02-17T00:34:40.186Z,44.43
2019-02-17T00:37:06.105Z,43.43
2019-02-17T00:39:31.979Z,43.07
2019-02-17T00:41:57.861Z,43.47
2019-02-17T00:44:24.020Z,42.90
2019-02-17T00:46:49.914Z,41.30
2019-02-17T00:49:16.081Z,41.70
2019-02-17T00:51:43.714Z,42.80
2019-02-17T00:54:09.834Z,43.73
2019-02-17T00:56:35.940Z,44.10
2019-02-17T00:59:10.197Z,42.03
2019-02-17T01:01:31.721Z,41.27
2019-02-17T01:03:57.738Z,41.73
2019-02-17T01:06:23.665Z,41.37
2019-02-17T01:08:49.533Z,40.67
2019-02-17T01:11:15.586Z,40.50
2019-02-17T01:13:41.445Z,37.47
2019-02-17T01:16:07.327Z,39.27
2019-02-17T01:18:33.258Z,39.27
2019-02-17T01:20:59.360Z,38.63
2019-02-17T01:23:25.348Z,40.53
2019-02-17T01:25:51.350Z,38.43
2019-02-17T01:28:17.374Z,40.17
2019-02-17T01:30:43.411Z,42.00
2019-02-17T01:33:09.482Z,40.87
2019-02-17T01:35:35.387Z,39.23
2019-02-17T01:38:01.343Z,38.50
2019-02-17T01:40:27.340Z,39.53
2019-02-17T01:42:53.227Z,37.47
2019-02-17T01:45:19.098Z,38.13
2019-02-17T01:47:44.991Z,37.97
2019-02-17T01:50:11.055Z,35.40
2019-02-17T01:52:37.027Z,35.50
2019-02-17T01:55:04.937Z,36.27
2019-02-17T01:57:30.912Z,37.43
2019-02-17T01:59:56.841Z,35.07
2019-02-17T02:02:22.726Z,38.27
2019-02-17T02:04:48.592Z,36.17
2019-02-17T02:07:14.686Z,36.17
2019-02-17T02:09:40.601Z,37.43
2019-02-17T02:12:06.547Z,35.07
2019-02-17T02:14:32.527Z,35.17
2019-02-17T02:16:58.527Z,36.07
2019-02-17T02:19:24.713Z,36.13
2019-02-17T02:21:50.613Z,34.37
2019-02-17T02:24:20.575Z,34.37
2019-02-17T02:26:46.475Z,32.40
2019-02-17T02:29:12.427Z,32.87
2019-02-17T02:31:38.354Z,32.77
2019-02-17T02:34:04.409Z,33.67
2019-02-17T02:36:30.299Z,35.60
2019-02-17T02:38:56.219Z,33.80
2019-02-17T02:41:22.292Z,34.30
2019-02-17T02:43:48.301Z,31.47
2019-02-17T02:46:14.290Z,32.07
2019-02-17T02:48:40.273Z,32.63
2019-02-17T02:51:06.303Z,32.10
2019-02-17T02:53:32.285Z,33.07
2019-02-17T02:55:58.305Z,32.33
2019-02-17T02:58:24.180Z,33.97
2019-02-17T03:00:50.043Z,33.77
2019-02-17T03:03:16.179Z,32.87
2019-02-17T03:05:43.968Z,32.53
2019-02-17T03:08:10.044Z,31.93
2019-02-17T03:10:35.934Z,30.57
2019-02-17T03:13:01.823Z,30.83
2019-02-17T03:15:27.756Z,30.97
2019-02-17T03:17:53.710Z,31.93
2019-02-17T03:20:19.597Z,32.57
2019-02-17T03:22:45.488Z,31.13
2019-02-17T03:25:15.006Z,31.10
2019-02-17T03:27:40.993Z,31.33
2019-02-17T03:30:08.889Z,28.70
2019-02-17T03:32:34.812Z,28.43
2019-02-17T03:35:00.672Z,29.27
2019-02-17T03:37:26.648Z,28.60
2019-02-17T03:39:52.716Z,28.20
2019-02-17T03:42:18.785Z,29.30
2019-02-17T03:44:44.784Z,28.73
2019-02-17T03:47:10.668Z,28.10
2019-02-17T03:49:36.518Z,27.90
2019-02-17T03:52:02.546Z,28.20
2019-02-17T03:54:28.433Z,27.77
2019-02-17T03:56:54.338Z,28.57
2019-02-17T03:59:20.426Z,25.30
2019-02-17T04:01:46.475Z,27.73
2019-02-17T04:04:12.373Z,26.07
2019-02-17T04:06:38.427Z,27.77
2019-02-17T04:09:05.419Z,27.80
2019-02-17T04:11:31.294Z,27.27
2019-02-17T04:13:57.472Z,26.83
2019-02-17T04:16:23.523Z,27.47
2019-02-17T04:18:49.401Z,27.63
2019-02-17T04:21:15.282Z,26.93
2019-02-17T04:23:41.329Z,28.07
2019-02-17T04:26:07.295Z,27.87
2019-02-17T04:28:33.273Z,28.40
2019-02-17T04:30:59.358Z,28.47
2019-02-17T04:33:25.380Z,27.10
2019-02-17T04:35:51.273Z,26.33
2019-02-17T04:38:17.270Z,26.33
2019-02-17T04:40:43.265Z,25.83
2019-02-17T04:43:09.249Z,25.73
2019-02-17T04:45:35.172Z,24.20
2019-02-17T04:48:01.207Z,25.17
2019-02-17T04:50:27.264Z,25.13
2019-02-17T04:52:53.268Z,25.43
2019-02-17T04:55:19.270Z,24.47
2019-02-17T04:57:45.260Z,25.67
2019-02-17T05:00:11.360Z,25.30
2019-02-17T05:02:37.265Z,26.23
2019-02-17T05:05:04.604Z,25.70
2019-02-17T05:07:30.583Z,25.00
2019-02-17T05:09:56.504Z,26.50
2019-02-17T05:12:22.473Z,25.77
2019-02-17T05:14:48.438Z,25.07
2019-02-17T05:17:14.390Z,24.97
2019-02-17T05:19:40.265Z,25.43
2019-02-17T05:22:06.338Z,24.53
2019-02-17T05:24:32.392Z,24.70
2019-02-17T05:27:01.979Z,24.50
2019-02-17T05:29:27.978Z,23.13
2019-02-17T05:31:53.892Z,23.13
2019-02-17T05:34:19.885Z,23.67
2019-02-17T05:36:46.014Z,23.03
2019-02-17T05:39:12.007Z,23.80
2019-02-17T05:41:37.930Z,23.47
2019-02-17T05:44:03.827Z,23.07
2019-02-17T05:46:29.822Z,22.87
2019-02-17T05:48:55.721Z,23.00
2019-02-17T05:51:21.808Z,22.43
2019-02-17T05:53:47.727Z,23.33
2019-02-17T05:56:13.620Z,23.33
2019-02-17T05:58:39.544Z,22.80
2019-02-17T06:01:07.337Z,23.00
2019-02-17T06:03:33.319Z,23.33
2019-02-17T06:05:59.223Z,24.00
2019-02-17T06:08:25.204Z,23.77
2019-02-17T06:10:51.232Z,22.87
2019-02-17T06:13:17.222Z,24.23
2019-02-17T06:15:43.209Z,23.53
2019-02-17T06:18:09.280Z,22.50
2019-02-17T06:20:35.179Z,22.10
2019-02-17T06:23:01.136Z,23.00
2019-02-17T06:25:27.160Z,22.40
2019-02-17T06:27:53.101Z,21.53
2019-02-17T06:30:22.371Z,21.93
2019-02-17T06:32:48.429Z,21.03
2019-02-17T06:35:14.310Z,21.93
2019-02-17T06:37:40.197Z,21.40
2019-02-17T06:40:06.918Z,21.77
2019-02-17T06:42:32.915Z,21.97
2019-02-17T06:44:58.813Z,21.40
2019-02-17T06:47:26.657Z,20.67
2019-02-17T06:49:52.641Z,21.30
2019-02-17T06:52:18.518Z,21.20
2019-02-17T06:54:46.641Z,21.40
2019-02-17T06:57:14.530Z,23.53
2019-02-17T06:59:40.540Z,23.73
2019-02-17T07:02:06.623Z,23.53
2019-02-17T07:04:37.384Z,22.53
2019-02-17T07:07:03.954Z,23.00
2019-02-17T07:09:29.807Z,22.80
2019-02-17T07:11:56.904Z,21.40
2019-02-17T07:14:23.099Z,21.17
2019-02-17T07:16:48.972Z,20.87
2019-02-17T07:19:15.044Z,19.70
2019-02-17T07:21:40.961Z,20.17
2019-02-17T07:24:06.952Z,19.00
2019-02-17T07:26:32.862Z,20.83
2019-02-17T07:28:58.723Z,19.80
2019-02-17T07:31:34.358Z,19.70
2019-02-17T07:33:52.629Z,19.90
2019-02-17T07:36:18.497Z,19.10
2019-02-17T07:38:44.413Z,18.73
2019-02-17T07:41:10.309Z,19.63
2019-02-17T07:43:36.331Z,19.70
2019-02-17T07:46:02.410Z,17.93
2019-02-17T07:48:28.319Z,19.50
2019-02-17T07:50:56.724Z,17.63
2019-02-17T07:53:22.171Z,19.47
2019-02-17T07:55:48.274Z,19.43
2019-02-17T07:58:14.385Z,21.07
2019-02-17T08:00:40.281Z,20.60
2019-02-17T08:03:06.195Z,21.63
2019-02-17T08:05:32.116Z,21.73
2019-02-17T08:07:58.087Z,22.80
2019-02-17T08:10:24.038Z,23.53
2019-02-17T08:12:50.147Z,23.47
2019-02-17T08:15:16.174Z,23.03
2019-02-17T08:17:42.074Z,23.07
2019-02-17T08:20:10.933Z,22.10
2019-02-17T08:22:36.897Z,20.83
2019-02-17T08:25:04.637Z,21.37
2019-02-17T08:27:30.620Z,21.17
2019-02-17T08:29:56.500Z,18.67
2019-02-17T08:32:22.435Z,17.90
2019-02-17T08:34:48.290Z,17.90
2019-02-17T08:37:14.216Z,17.93
2019-02-17T08:39:40.105Z,17.23
2019-02-17T08:42:06.110Z,17.40
2019-02-17T08:44:32.077Z,17.67
2019-02-17T08:46:59.955Z,17.33
2019-02-17T08:49:25.846Z,17.47
2019-02-17T08:51:51.744Z,17.57
2019-02-17T08:54:17.602Z,17.70
2019-02-17T08:56:43.569Z,18.20
2019-02-17T08:59:09.603Z,19.20
2019-02-17T09:01:35.501Z,18.63
2019-02-17T09:04:01.749Z,20.20
2019-02-17T09:06:27.655Z,19.43
2019-02-17T09:08:53.529Z,21.27
2019-02-17T09:11:21.317Z,19.90
2019-02-17T09:13:47.199Z,22.30
2019-02-17T09:16:13.104Z,22.87
2019-02-17T09:18:39.086Z,23.53
2019-02-17T09:21:05.030Z,23.97
2019-02-17T09:23:30.916Z,23.23
2019-02-17T09:25:56.821Z,24.57
2019-02-17T09:28:22.836Z,25.80
2019-02-17T09:30:48.695Z,24.67
2019-02-17T09:33:18.727Z,25.80
2019-02-17T09:35:44.830Z,25.53
2019-02-17T09:38:10.716Z,23.80
2019-02-17T09:40:36.671Z,22.73
2019-02-17T09:43:02.761Z,23.33
2019-02-17T09:45:28.621Z,45.73
2019-02-17T09:47:54.483Z,27.17
2019-02-17T09:50:20.562Z,25.53
2019-02-17T09:52:46.431Z,24.93
2019-02-17T09:55:12.407Z,26.60
2019-02-17T09:57:38.939Z,27.47
2019-02-17T10:00:08.280Z,28.10
2019-02-17T10:02:34.248Z,29.00
2019-02-17T10:05:00.401Z,31.23
2019-02-17T10:07:26.379Z,35.37
2019-02-17T10:09:52.246Z,34.73
2019-02-17T10:12:18.131Z,34.13
2019-02-17T10:14:44.111Z,34.87
2019-02-17T10:17:10.004Z,37.87
2019-02-17T10:19:35.881Z,36.47
2019-02-17T10:22:01.859Z,36.90
2019-02-17T10:24:28.093Z,39.73
2019-02-17T10:26:53.963Z,38.87
2019-02-17T10:29:19.956Z,38.37
2019-02-17T10:31:45.980Z,37.57
2019-02-17T10:34:12.009Z,38.07
2019-02-17T10:36:37.900Z,37.53
2019-02-17T10:39:05.087Z,33.07
2019-02-17T10:41:31.095Z,33.40
2019-02-17T10:43:57.048Z,33.23
2019-02-17T10:46:22.976Z,36.53
2019-02-17T10:48:48.964Z,37.67
2019-02-17T10:51:14.824Z,38.80
2019-02-17T10:53:40.878Z,36.27
2019-02-17T10:56:06.768Z,39.13
2019-02-17T10:58:32.671Z,36.90
2019-02-17T11:00:58.703Z,36.43
2019-02-17T11:03:24.700Z,35.27
2019-02-17T11:05:53.723Z,36.10
2019-02-17T11:08:19.607Z,35.97
2019-02-17T11:10:45.695Z,35.73
2019-02-17T11:13:11.639Z,36.83
2019-02-17T11:15:37.833Z,36.60
2019-02-17T11:18:03.796Z,37.83
2019-02-17T11:20:29.691Z,36.90
2019-02-17T11:22:55.769Z,36.77
2019-02-17T11:25:21.667Z,35.03
2019-02-17T11:27:47.655Z,36.33
2019-02-17T11:30:18.917Z,35.90
2019-02-17T11:32:44.835Z,35.23
2019-02-17T11:35:10.943Z,37.43
2019-02-17T11:37:36.925Z,36.77
2019-02-17T11:40:05.651Z,37.20
2019-02-17T11:42:31.494Z,40.60
2019-02-17T11:44:57.584Z,41.97
2019-02-17T11:47:23.499Z,42.53
2019-02-17T11:49:49.385Z,45.60
2019-02-17T11:52:15.344Z,48.97
2019-02-17T11:54:41.264Z,46.87
2019-02-17T11:57:07.180Z,46.70
2019-02-17T11:59:33.054Z,45.57
2019-02-17T12:01:58.959Z,48.13
2019-02-17T12:04:24.875Z,47.37
2019-02-17T12:06:50.766Z,46.43
2019-02-17T12:09:16.778Z,48.23
2019-02-17T12:11:42.641Z,50.07
2019-02-17T12:14:08.510Z,45.93
2019-02-17T12:16:36.957Z,47.23
2019-02-17T12:19:02.404Z,47.57
2019-02-17T12:21:30.359Z,47.67
2019-02-17T12:24:14.968Z,45.63
2019-02-17T12:26:42.904Z,48.30
2019-02-17T12:29:13.444Z,47.40
2019-02-17T12:31:39.818Z,46.10
2019-02-17T12:34:05.818Z,49.13
2019-02-17T12:36:34.947Z,48.87
2019-02-17T12:39:01.107Z,51.63
2019-02-17T12:41:27.077Z,52.67
2019-02-17T12:43:53.050Z,50.27
2019-02-17T12:46:18.982Z,52.37
2019-02-17T12:48:44.940Z,52.13
2019-02-17T12:51:11.035Z,50.77
2019-02-17T12:53:36.954Z,54.63
2019-02-17T12:56:03.035Z,53.33
2019-02-17T12:58:30.205Z,52.03
2019-02-17T13:00:56.262Z,52.80
2019-02-17T13:03:28.482Z,57.33
2019-02-17T13:05:50.099Z,56.63
2019-02-17T13:08:16.125Z,58.68
2019-02-17T13:10:42.003Z,57.70
2019-02-17T13:13:07.911Z,58.60
2019-02-17T13:15:33.771Z,59.35
2019-02-17T13:17:59.770Z,60.17
2019-02-17T13:20:25.746Z,60.60
2019-02-17T13:22:51.685Z,61.00
2019-02-17T13:25:17.567Z,60.03
2019-02-17T13:27:43.665Z,62.27
2019-02-17T13:30:21.413Z,60.70
2019-02-17T13:32:47.500Z,60.30
2019-02-17T13:35:13.510Z,58.00
2019-02-17T13:37:39.624Z,60.23
2019-02-17T13:40:08.942Z,55.48
2019-02-17T13:42:34.808Z,54.50
2019-02-17T13:45:00.727Z,54.08
2019-02-17T13:47:26.629Z,57.95
2019-02-17T13:49:52.620Z,61.83
2019-02-17T13:52:18.593Z,57.93
2019-02-17T13:54:44.466Z,61.02
2019-02-17T13:57:10.568Z,61.75
2019-02-17T13:59:36.544Z,62.05
2019-02-17T14:02:02.407Z,61.65
2019-02-17T14:04:28.313Z,62.60
2019-02-17T14:06:54.587Z,64.12
2019-02-17T14:09:20.511Z,61.70
2019-02-17T14:11:46.411Z,63.38
2019-02-17T14:14:12.324Z,63.83
2019-02-17T14:16:38.300Z,63.52
2019-02-17T14:19:04.243Z,62.00
2019-02-17T14:21:30.110Z,63.30
2019-02-17T14:23:56.095Z,65.57
2019-02-17T14:26:22.091Z,65.22
2019-02-17T14:28:48.032Z,66.12
2019-02-17T14:31:13.999Z,67.15
2019-02-17T14:33:39.870Z,68.85
2019-02-17T14:36:05.770Z,71.53
2019-02-17T14:38:31.723Z,72.15
2019-02-17T14:40:57.693Z,69.97
2019-02-17T14:43:23.742Z,76.87
2019-02-17T14:45:49.616Z,73.87
2019-02-17T14:48:15.474Z,72.58
2019-02-17T14:50:41.463Z,74.47
2019-02-17T14:53:07.366Z,74.47
2019-02-17T14:55:33.418Z,75.97
2019-02-17T14:58:05.422Z,73.40
2019-02-17T15:00:27.152Z,74.72
2019-02-17T15:02:53.040Z,75.00
2019-02-17T15:05:19.024Z,75.87
2019-02-17T15:07:44.916Z,73.75
2019-02-17T15:10:12.279Z,76.97
2019-02-17T15:12:38.346Z,73.67
2019-02-17T15:15:09.308Z,71.92
2019-02-17T15:17:35.459Z,72.75
2019-02-17T15:20:01.491Z,74.15
2019-02-17T15:22:27.479Z,76.65
2019-02-17T15:24:53.325Z,72.92
2019-02-17T15:27:19.248Z,73.17
2019-02-17T15:29:45.218Z,72.75
2019-02-17T15:32:11.124Z,73.25
2019-02-17T15:34:37.061Z,72.72
2019-02-17T15:37:03.112Z,70.27
2019-02-17T15:39:29.106Z,71.33
2019-02-17T15:41:55.054Z,66.07
2019-02-17T15:44:21.047Z,63.57
2019-02-17T15:46:46.908Z,61.67
2019-02-17T15:49:12.815Z,62.23
2019-02-17T15:51:38.703Z,59.73
2019-02-17T15:54:04.698Z,60.80
2019-02-17T15:56:30.794Z,60.90
2019-02-17T15:58:56.746Z,58.40
2019-02-17T16:01:22.845Z,60.97
2019-02-17T16:03:48.825Z,59.37
2019-02-17T16:06:14.701Z,59.57
2019-02-17T16:08:40.706Z,60.00
2019-02-17T16:11:06.637Z,59.60
2019-02-17T16:13:32.499Z,59.10
2019-02-17T16:15:58.376Z,57.77
2019-02-17T16:18:24.433Z,59.60
2019-02-17T16:20:50.313Z,59.03
2019-02-17T16:23:16.263Z,58.57
2019-02-17T16:25:42.212Z,61.80
2019-02-17T16:28:08.094Z,58.63
2019-02-17T16:30:34.003Z,57.17
2019-02-17T16:32:59.869Z,59.00
2019-02-17T16:35:25.864Z,60.07
2019-02-17T16:37:51.775Z,59.23
2019-02-17T16:40:17.782Z,59.57
2019-02-17T16:42:43.835Z,59.33
2019-02-17T16:45:12.328Z,60.20
2019-02-17T16:47:38.192Z,60.83
2019-02-17T16:50:31.627Z,59.20
2019-02-17T16:52:59.512Z,58.83
2019-02-17T16:55:25.384Z,60.53
2019-02-17T16:57:51.613Z,61.13
2019-02-17T17:00:22.737Z,58.73
2019-02-17T17:02:49.836Z,61.50
2019-02-17T17:05:15.855Z,59.03
2019-02-17T17:07:41.737Z,61.77
2019-02-17T17:10:08.513Z,63.57
2019-02-17T17:12:34.639Z,63.17
2019-02-17T17:15:00.494Z,61.57
2019-02-17T17:17:26.469Z,64.00
2019-02-17T17:19:52.388Z,66.63
2019-02-17T17:22:18.383Z,64.03
2019-02-17T17:24:44.303Z,63.93
2019-02-17T17:27:10.377Z,64.57
2019-02-17T17:29:36.253Z,67.50
2019-02-17T17:32:02.356Z,65.57
2019-02-17T17:34:28.253Z,63.70
2019-02-17T17:36:54.184Z,67.03
2019-02-17T17:39:20.153Z,65.97
2019-02-17T17:41:46.057Z,63.83
2019-02-17T17:44:12.185Z,65.27
2019-02-17T17:46:38.054Z,61.23
2019-02-17T17:49:03.954Z,60.43
2019-02-17T17:51:30.061Z,58.77
2019-02-17T17:53:56.362Z,61.40
2019-02-17T17:56:22.245Z,63.57
2019-02-17T17:58:48.336Z,62.60
2019-02-17T18:01:14.205Z,65.00
2019-02-17T18:03:40.130Z,64.47
2019-02-17T18:06:06.146Z,64.73
2019-02-17T18:08:32.103Z,63.93
2019-02-17T18:10:58.038Z,67.70
2019-02-17T18:13:24.017Z,70.70
2019-02-17T18:15:49.998Z,65.03
2019-02-17T18:18:17.127Z,66.47
2019-02-17T18:20:43.008Z,64.03
2019-02-17T18:23:09.002Z,67.07
2019-02-17T18:25:34.879Z,65.60
2019-02-17T18:28:00.846Z,66.63
2019-02-17T18:30:26.836Z,64.40
2019-02-17T18:32:52.729Z,62.67
2019-02-17T18:35:20.496Z,60.63
2019-02-17T18:37:46.655Z,63.50
2019-02-17T18:40:16.216Z,63.37
2019-02-17T18:42:42.468Z,63.63
2019-02-17T18:45:10.730Z,61.53
2019-02-17T18:47:39.525Z,61.70
2019-02-17T18:50:11.282Z,59.63
2019-02-17T18:52:37.489Z,61.50
2019-02-17T18:55:05.656Z,62.13
2019-02-17T18:57:33.169Z,60.60
2019-02-17T19:00:01.520Z,60.10
2019-02-17T19:02:27.550Z,59.27
2019-02-17T19:04:55.588Z,59.13
2019-02-17T19:07:21.458Z,60.53
2019-02-17T19:09:47.489Z,61.83
2019-02-17T19:12:13.575Z,64.67
2019-02-17T19:14:42.435Z,61.00
2019-02-17T19:17:08.405Z,59.43
2019-02-17T19:19:34.343Z,59.50
2019-02-17T19:22:02.471Z,59.40
2019-02-17T19:24:28.491Z,61.50
2019-02-17T19:26:54.514Z,60.40
2019-02-17T19:29:20.449Z,59.73
2019-02-17T19:31:46.547Z,57.77
2019-02-17T19:34:12.459Z,58.63
2019-02-17T19:36:38.565Z,65.47
2019-02-17T19:39:04.639Z,64.07
2019-02-17T19:41:30.541Z,61.17
2019-02-17T19:43:56.616Z,60.20
2019-02-17T19:46:22.493Z,60.90
2019-02-17T19:48:48.370Z,58.67
2019-02-17T19:51:14.403Z,59.27
2019-02-17T19:53:40.330Z,60.57
2019-02-17T19:56:07.566Z,57.40
2019-02-17T19:58:33.624Z,58.97
2019-02-17T20:00:59.744Z,59.07
2019-02-17T20:03:30.576Z,58.33
2019-02-17T20:05:58.369Z,57.30
2019-02-17T20:08:24.370Z,57.50
2019-02-17T20:10:50.249Z,56.60
2019-02-17T20:13:16.342Z,57.70
2019-02-17T20:15:42.222Z,55.10
2019-02-17T20:18:08.153Z,55.40
2019-02-17T20:20:34.054Z,56.33
2019-02-17T20:22:59.922Z,55.37
2019-02-17T20:25:25.896Z,58.70
2019-02-17T20:27:51.998Z,56.87
2019-02-17T20:30:18.020Z,55.17
2019-02-17T20:32:44.143Z,53.90
2019-02-17T20:35:10.315Z,55.63
2019-02-17T20:37:36.474Z,55.07
2019-02-17T20:40:06.107Z,52.27
2019-02-17T20:42:32.745Z,52.37
2019-02-17T20:44:58.645Z,54.17
2019-02-17T20:47:27.911Z,53.10
2019-02-17T20:49:53.871Z,52.70
2019-02-17T20:52:19.726Z,52.27
2019-02-17T20:54:46.303Z,52.87
2019-02-17T20:57:12.319Z,54.30
2019-02-17T20:59:38.274Z,50.23
2019-02-17T21:02:04.611Z,50.30
2019-02-17T21:04:30.643Z,49.03
2019-02-17T21:06:56.480Z,50.77
2019-02-17T21:09:22.815Z,49.93
2019-02-17T21:11:49.118Z,49.23
2019-02-17T21:14:15.562Z,48.70
2019-02-17T21:16:42.007Z,47.60
2019-02-17T21:19:08.779Z,48.87
2019-02-17T21:21:35.790Z,49.20
2019-02-17T21:24:02.600Z,48.10
2019-02-17T21:26:29.108Z,48.17
2019-02-17T21:28:55.552Z,50.77
2019-02-17T21:31:21.897Z,48.87
2019-02-17T21:33:48.297Z,48.80
2019-02-17T21:36:22.901Z,49.27
2019-02-17T21:38:43.017Z,48.97
2019-02-17T21:41:10.045Z,49.60
2019-02-17T21:43:36.180Z,49.83
2019-02-17T21:46:02.225Z,48.60
2019-02-17T21:48:28.249Z,48.87
2019-02-17T21:50:54.215Z,49.70
2019-02-17T21:53:21.014Z,50.17
2019-02-17T21:55:47.261Z,47.93
2019-02-17T21:58:13.175Z,47.60
2019-02-17T22:00:39.181Z,48.80
2019-02-17T22:03:05.305Z,47.87
2019-02-17T22:05:31.415Z,46.90
2019-02-17T22:07:57.261Z,46.43
2019-02-17T22:10:23.128Z,46.90
2019-02-17T22:12:51.302Z,45.83
2019-02-17T22:15:21.721Z,46.90
2019-02-17T22:17:47.811Z,46.37
2019-02-17T22:20:13.922Z,45.43
2019-02-17T22:22:39.900Z,44.27
2019-02-17T22:25:07.140Z,54.00
2019-02-17T22:27:33.091Z,47.47
2019-02-17T22:29:58.982Z,48.20
2019-02-17T22:32:25.007Z,48.53
2019-02-17T22:34:50.891Z,46.33
2019-02-17T22:37:16.762Z,47.00
2019-02-17T22:39:42.662Z,47.37
2019-02-17T22:42:08.533Z,47.60
2019-02-17T22:44:34.618Z,47.33
2019-02-17T22:47:00.580Z,45.63
2019-02-17T22:49:29.964Z,45.97
2019-02-17T22:51:55.938Z,45.93
2019-02-17T22:54:21.864Z,48.23
2019-02-17T22:56:47.730Z,47.43
2019-02-17T22:59:13.756Z,45.37
2019-02-17T23:01:39.729Z,47.10
2019-02-17T23:04:05.820Z,45.10
2019-02-17T23:06:31.721Z,44.77
2019-02-17T23:08:57.741Z,44.13
2019-02-17T23:11:23.812Z,43.80
2019-02-17T23:13:50.036Z,41.80
2019-02-17T23:16:16.019Z,42.03
2019-02-17T23:18:42.018Z,41.33
2019-02-17T23:21:08.016Z,40.97
2019-02-17T23:23:33.986Z,40.97
2019-02-17T23:25:59.906Z,42.10
2019-02-17T23:28:25.986Z,42.23
2019-02-17T23:30:51.949Z,41.20
2019-02-17T23:33:17.995Z,42.80
2019-02-17T23:35:43.889Z,43.40
2019-02-17T23:38:09.907Z,43.43
2019-02-17T23:40:35.920Z,45.13
2019-02-17T23:43:02.030Z,42.77
2019-02-17T23:45:27.976Z,43.47
2019-02-17T23:47:53.982Z,44.27
2019-02-17T23:50:19.978Z,44.60
2019-02-17T23:52:45.890Z,43.90
2019-02-17T23:55:12.063Z,42.27
2019-02-17T23:57:38.558Z,40.87
